createdAt,value
2018-06-13T00:01:40.837Z,17.20
2018-06-13T00:04:10.070Z,17.30
2018-06-13T00:06:39.274Z,17.50
2018-06-13T00:09:09.082Z,17.20
2018-06-13T00:11:38.251Z,17.50
2018-06-13T00:14:07.480Z,17.30
2018-06-13T00:16:36.735Z,17.40
2018-06-13T00:19:06.018Z,17.50
2018-06-13T00:21:35.192Z,17.40
2018-06-13T00:24:04.424Z,17.50
2018-06-13T00:26:33.670Z,17.30
2018-06-13T00:29:02.858Z,17.20
2018-06-13T00:31:32.073Z,17.50
2018-06-13T00:34:01.375Z,17.20
2018-06-13T00:36:30.644Z,17.10
2018-06-13T00:38:59.984Z,17.20
2018-06-13T00:41:29.387Z,17.00
2018-06-13T00:43:58.570Z,16.90
2018-06-13T00:46:27.762Z,17.10
2018-06-13T00:48:56.957Z,17.00
2018-06-13T00:51:26.154Z,16.80
2018-06-13T00:53:55.575Z,16.90
2018-06-13T00:56:31.255Z,17.10
2018-06-13T00:59:00.483Z,16.70
2018-06-13T01:01:29.646Z,16.80
2018-06-13T01:03:58.950Z,17.10
2018-06-13T01:06:28.196Z,17.10
2018-06-13T01:08:57.404Z,17.00
2018-06-13T01:11:26.645Z,16.70
2018-06-13T01:13:55.845Z,16.90
2018-06-13T01:16:25.130Z,16.80
2018-06-13T01:18:54.396Z,17.10
2018-06-13T01:21:23.614Z,17.00
2018-06-13T01:23:52.862Z,17.10
2018-06-13T01:26:22.079Z,17.00
2018-06-13T01:28:51.304Z,17.00
2018-06-13T01:31:20.530Z,16.80
2018-06-13T01:33:49.761Z,17.10
2018-06-13T01:36:19.451Z,17.00
2018-06-13T01:38:48.685Z,17.00
2018-06-13T01:41:20.608Z,17.00
2018-06-13T01:43:50.455Z,17.00
2018-06-13T01:46:19.804Z,17.20
2018-06-13T01:48:49.028Z,17.00
2018-06-13T01:51:18.210Z,17.00
2018-06-13T01:53:47.382Z,17.00
2018-06-13T01:56:16.532Z,16.90
2018-06-13T01:58:45.765Z,16.80
2018-06-13T02:01:14.927Z,16.90
2018-06-13T02:03:44.163Z,16.90
2018-06-13T02:06:13.336Z,16.90
2018-06-13T02:08:42.532Z,16.90
2018-06-13T02:11:11.777Z,17.10
2018-06-13T02:13:40.958Z,17.00
2018-06-13T02:16:11.000Z,16.90
2018-06-13T02:18:40.249Z,16.90
2018-06-13T02:21:10.568Z,17.00
2018-06-13T02:23:39.769Z,16.70
2018-06-13T02:26:08.975Z,17.00
2018-06-13T02:28:38.284Z,17.00
2018-06-13T02:31:07.549Z,16.80
2018-06-13T02:33:36.760Z,17.10
2018-06-13T02:36:06.027Z,17.00
2018-06-13T02:38:35.300Z,16.70
2018-06-13T02:41:04.516Z,17.00
2018-06-13T02:43:33.754Z,16.80
2018-06-13T02:46:02.933Z,16.70
2018-06-13T02:48:32.125Z,16.70
2018-06-13T02:51:01.375Z,16.80
2018-06-13T02:53:30.601Z,16.70
2018-06-13T02:55:59.879Z,16.60
2018-06-13T02:58:29.080Z,16.80
2018-06-13T03:00:58.324Z,16.50
2018-06-13T03:03:27.512Z,16.50
2018-06-13T03:05:56.740Z,16.80
2018-06-13T03:08:26.059Z,16.70
2018-06-13T03:10:55.275Z,16.30
2018-06-13T03:13:24.424Z,16.50
2018-06-13T03:15:53.766Z,16.90
2018-06-13T03:18:23.038Z,16.50
2018-06-13T03:20:52.262Z,16.60
2018-06-13T03:23:21.464Z,16.60
2018-06-13T03:25:50.668Z,16.50
2018-06-13T03:28:19.901Z,16.50
2018-06-13T03:30:49.086Z,16.50
2018-06-13T03:33:18.299Z,16.60
2018-06-13T03:35:47.529Z,16.40
2018-06-13T03:38:16.810Z,16.50
2018-06-13T03:40:45.996Z,16.70
2018-06-13T03:43:15.173Z,16.50
2018-06-13T03:45:44.373Z,16.60
2018-06-13T03:48:13.549Z,16.60
2018-06-13T03:50:42.769Z,16.50
2018-06-13T03:53:11.918Z,16.60
2018-06-13T03:55:41.205Z,16.40
2018-06-13T03:58:10.372Z,16.40
2018-06-13T04:00:39.573Z,16.40
2018-06-13T04:03:08.834Z,16.50
2018-06-13T04:05:38.081Z,16.50
2018-06-13T04:08:07.337Z,16.70
2018-06-13T04:10:36.549Z,16.50
2018-06-13T04:13:05.767Z,16.50
2018-06-13T04:15:34.960Z,16.50
2018-06-13T04:18:05.731Z,16.40
2018-06-13T04:20:34.919Z,16.50
2018-06-13T04:23:04.150Z,16.40
2018-06-13T04:25:33.323Z,16.60
2018-06-13T04:28:02.473Z,16.40
2018-06-13T04:30:31.662Z,16.40
2018-06-13T04:33:00.970Z,16.20
2018-06-13T04:35:30.201Z,16.30
2018-06-13T04:37:59.397Z,16.30
2018-06-13T04:40:28.638Z,16.50
2018-06-13T04:42:57.808Z,16.20
2018-06-13T04:45:27.088Z,16.60
2018-06-13T04:47:56.253Z,16.50
2018-06-13T04:50:25.502Z,16.70
2018-06-13T04:52:54.996Z,16.40
2018-06-13T04:55:24.218Z,16.20
2018-06-13T04:57:53.476Z,16.30
2018-06-13T05:00:22.657Z,16.30
2018-06-13T05:02:52.299Z,16.30
2018-06-13T05:05:21.608Z,16.30
2018-06-13T05:07:50.877Z,16.40
2018-06-13T05:10:20.097Z,16.40
2018-06-13T05:12:49.383Z,16.70
2018-06-13T05:15:18.572Z,16.60
2018-06-13T05:17:47.977Z,16.50
2018-06-13T05:20:17.137Z,16.40
2018-06-13T05:22:46.401Z,16.60
2018-06-13T05:25:15.723Z,16.60
2018-06-13T05:27:44.935Z,16.70
2018-06-13T05:30:14.157Z,16.60
2018-06-13T05:32:43.382Z,16.90
2018-06-13T05:35:12.575Z,16.90
2018-06-13T05:37:41.899Z,16.90
2018-06-13T05:40:11.080Z,16.90
2018-06-13T05:42:40.645Z,16.70
2018-06-13T05:45:09.867Z,16.70
2018-06-13T05:47:39.134Z,16.80
2018-06-13T05:50:08.375Z,16.60
2018-06-13T05:52:37.596Z,16.50
2018-06-13T05:55:06.808Z,16.60
2018-06-13T05:57:37.246Z,16.70
2018-06-13T06:00:06.558Z,16.50
2018-06-13T06:02:35.902Z,16.80
2018-06-13T06:05:05.243Z,16.50
2018-06-13T06:07:34.447Z,16.40
2018-06-13T06:10:03.717Z,16.40
2018-06-13T06:12:32.977Z,16.30
2018-06-13T06:15:02.177Z,16.70
2018-06-13T06:17:31.574Z,16.40
2018-06-13T06:20:00.932Z,16.60
2018-06-13T06:22:30.147Z,16.70
2018-06-13T06:24:59.327Z,16.50
2018-06-13T06:27:28.581Z,16.80
2018-06-13T06:29:57.809Z,17.00
2018-06-13T06:32:26.977Z,16.80
2018-06-13T06:34:56.184Z,16.80
2018-06-13T06:37:25.389Z,16.80
2018-06-13T06:39:54.707Z,17.00
2018-06-13T06:42:23.920Z,16.90
2018-06-13T06:44:53.096Z,16.90
2018-06-13T06:47:22.292Z,16.90
2018-06-13T06:49:51.747Z,16.90
2018-06-13T06:52:20.919Z,17.00
2018-06-13T06:54:50.130Z,16.80
2018-06-13T06:57:19.464Z,16.90
2018-06-13T06:59:48.675Z,16.90
2018-06-13T07:02:17.869Z,17.00
2018-06-13T07:04:47.108Z,17.00
2018-06-13T07:07:16.415Z,17.10
2018-06-13T07:09:45.692Z,17.30
2018-06-13T07:12:14.852Z,16.90
2018-06-13T07:14:44.080Z,17.00
2018-06-13T07:17:13.306Z,17.00
2018-06-13T07:19:42.560Z,16.60
2018-06-13T07:22:11.846Z,17.00
2018-06-13T07:24:41.069Z,16.50
2018-06-13T07:27:10.347Z,16.70
2018-06-13T07:29:39.623Z,16.90
2018-06-13T07:32:08.844Z,16.90
2018-06-13T07:34:38.036Z,17.10
2018-06-13T07:37:07.240Z,17.00
2018-06-13T07:39:36.452Z,17.00
2018-06-13T07:42:05.941Z,16.80
2018-06-13T07:44:35.144Z,17.00
2018-06-13T07:47:04.366Z,16.90
2018-06-13T07:49:33.640Z,17.00
2018-06-13T07:52:02.887Z,17.20
2018-06-13T07:54:32.151Z,17.00
2018-06-13T07:57:01.385Z,17.20
2018-06-13T07:59:30.639Z,17.20
2018-06-13T08:01:59.878Z,17.00
2018-06-13T08:04:29.119Z,17.00
2018-06-13T08:06:58.371Z,17.10
2018-06-13T08:09:27.624Z,17.40
2018-06-13T08:11:56.898Z,17.30
2018-06-13T08:14:26.132Z,17.20
2018-06-13T08:16:55.406Z,17.10
2018-06-13T08:19:24.593Z,17.50
2018-06-13T08:21:54.369Z,17.60
2018-06-13T08:24:23.568Z,17.30
2018-06-13T08:26:55.720Z,17.50
2018-06-13T08:29:24.942Z,17.50
2018-06-13T08:31:54.192Z,17.50
2018-06-13T08:34:24.058Z,17.10
2018-06-13T08:36:53.745Z,17.00
2018-06-13T08:39:22.953Z,17.20
2018-06-13T08:41:52.315Z,17.50
2018-06-13T08:44:21.528Z,17.40
2018-06-13T08:46:50.839Z,17.60
2018-06-13T08:49:20.101Z,17.30
2018-06-13T08:51:50.060Z,17.60
2018-06-13T08:54:19.277Z,17.30
2018-06-13T08:56:48.573Z,17.30
2018-06-13T08:59:17.771Z,17.60
2018-06-13T09:01:47.030Z,17.70
2018-06-13T09:04:16.272Z,17.40
2018-06-13T09:06:45.481Z,17.60
2018-06-13T09:09:14.799Z,17.40
2018-06-13T09:11:44.039Z,17.30
2018-06-13T09:14:13.203Z,17.30
2018-06-13T09:16:42.444Z,17.40
2018-06-13T09:19:11.668Z,17.50
2018-06-13T09:21:40.880Z,17.40
2018-06-13T09:24:10.083Z,17.30
2018-06-13T09:26:39.293Z,17.60
2018-06-13T09:29:08.885Z,17.90
2018-06-13T09:31:38.082Z,17.60
2018-06-13T09:34:07.316Z,17.70
2018-06-13T09:36:36.571Z,17.80
2018-06-13T09:39:07.144Z,17.90
2018-06-13T09:41:41.781Z,17.60
2018-06-13T09:44:11.184Z,17.50
2018-06-13T09:46:40.546Z,17.40
2018-06-13T09:49:09.856Z,17.40
2018-06-13T09:51:39.199Z,17.60
2018-06-13T09:54:08.378Z,17.40
2018-06-13T09:56:37.649Z,17.30
2018-06-13T09:59:13.352Z,17.50
2018-06-13T10:01:48.166Z,17.40
2018-06-13T10:04:17.410Z,17.50
2018-06-13T10:06:46.656Z,17.50
2018-06-13T10:09:15.889Z,17.70
2018-06-13T10:11:45.255Z,18.00
2018-06-13T10:14:14.505Z,17.70
2018-06-13T10:16:43.779Z,17.60
2018-06-13T10:19:13.016Z,17.80
2018-06-13T10:21:42.229Z,18.10
2018-06-13T10:24:11.533Z,18.20
2018-06-13T10:26:40.775Z,18.00
2018-06-13T10:29:10.111Z,18.20
2018-06-13T10:31:39.379Z,18.20
2018-06-13T10:34:08.605Z,18.20
2018-06-13T10:36:37.875Z,18.20
2018-06-13T10:39:08.124Z,18.40
2018-06-13T10:41:37.421Z,18.20
2018-06-13T10:44:06.652Z,18.10
2018-06-13T10:46:36.032Z,18.50
2018-06-13T10:49:05.292Z,18.70
2018-06-13T10:51:34.495Z,18.60
2018-06-13T10:54:05.021Z,18.40
2018-06-13T10:56:34.267Z,18.70
2018-06-13T10:59:03.612Z,18.60
2018-06-13T11:01:32.839Z,18.20
2018-06-13T11:04:02.129Z,18.10
2018-06-13T11:06:31.365Z,18.20
2018-06-13T11:09:00.600Z,18.20
2018-06-13T11:11:29.852Z,18.60
2018-06-13T11:13:59.152Z,18.50
2018-06-13T11:16:29.276Z,18.50
2018-06-13T11:18:58.501Z,18.20
2018-06-13T11:21:27.735Z,18.30
2018-06-13T11:23:56.969Z,18.40
2018-06-13T11:26:26.255Z,18.10
2018-06-13T11:28:55.459Z,18.20
2018-06-13T11:31:24.749Z,18.30
2018-06-13T11:33:53.960Z,18.20
2018-06-13T11:36:23.292Z,18.50
2018-06-13T11:38:52.617Z,18.40
2018-06-13T11:41:21.858Z,18.30
2018-06-13T11:43:51.210Z,18.20
2018-06-13T11:46:20.662Z,18.20
2018-06-13T11:48:49.910Z,18.20
2018-06-13T11:51:19.198Z,18.40
2018-06-13T11:53:48.555Z,18.60
2018-06-13T11:56:17.851Z,18.40
2018-06-13T11:58:47.131Z,18.40
2018-06-13T12:01:16.514Z,18.60
2018-06-13T12:03:45.794Z,18.50
2018-06-13T12:06:15.109Z,18.70
2018-06-13T12:08:44.320Z,18.90
2018-06-13T12:11:13.792Z,18.90
2018-06-13T12:13:43.115Z,19.00
2018-06-13T12:16:12.403Z,18.90
2018-06-13T12:18:41.674Z,19.00
2018-06-13T12:21:10.961Z,19.10
2018-06-13T12:23:40.260Z,18.80
2018-06-13T12:26:09.570Z,18.70
2018-06-13T12:28:39.299Z,19.20
2018-06-13T12:31:08.570Z,18.90
2018-06-13T12:33:37.901Z,19.20
2018-06-13T12:36:07.199Z,19.00
2018-06-13T12:38:36.528Z,18.90
2018-06-13T12:41:05.823Z,18.80
2018-06-13T12:43:35.037Z,19.10
2018-06-13T12:46:04.320Z,19.10
2018-06-13T12:48:33.724Z,19.10
2018-06-13T12:51:02.929Z,19.00
2018-06-13T12:53:32.256Z,19.20
2018-06-13T12:56:01.579Z,18.80
2018-06-13T12:58:30.725Z,19.00
2018-06-13T13:00:59.978Z,18.80
2018-06-13T13:03:29.252Z,19.10
2018-06-13T13:05:58.539Z,18.80
2018-06-13T13:08:27.928Z,19.20
2018-06-13T13:10:57.269Z,19.10
2018-06-13T13:13:26.537Z,19.30
2018-06-13T13:15:55.714Z,19.40
2018-06-13T13:18:24.994Z,19.50
2018-06-13T13:20:54.284Z,19.60
2018-06-13T13:23:23.555Z,19.50
2018-06-13T13:25:52.901Z,19.60
2018-06-13T13:28:22.229Z,19.50
2018-06-13T13:30:51.526Z,19.30
2018-06-13T13:33:20.849Z,19.40
2018-06-13T13:35:50.105Z,19.30
2018-06-13T13:38:20.762Z,19.30
2018-06-13T13:40:50.241Z,19.50
2018-06-13T13:43:19.511Z,19.40
2018-06-13T13:45:48.941Z,19.50
2018-06-13T13:48:18.095Z,19.30
2018-06-13T13:50:47.400Z,19.60
2018-06-13T13:53:16.695Z,19.70
2018-06-13T13:55:45.887Z,19.60
2018-06-13T13:58:15.134Z,19.50
2018-06-13T14:00:44.349Z,19.60
2018-06-13T14:03:13.659Z,19.40
2018-06-13T14:05:44.561Z,19.40
2018-06-13T14:08:13.790Z,19.30
2018-06-13T14:10:43.019Z,19.30
2018-06-13T14:13:12.252Z,19.20
2018-06-13T14:15:41.594Z,19.50
2018-06-13T14:18:10.920Z,19.70
2018-06-13T14:20:40.166Z,19.50
2018-06-13T14:23:10.137Z,19.60
2018-06-13T14:25:39.358Z,19.30
2018-06-13T14:28:08.593Z,19.60
2018-06-13T14:30:37.862Z,19.50
2018-06-13T14:33:07.176Z,19.50
2018-06-13T14:35:36.407Z,19.60
2018-06-13T14:38:05.693Z,19.50
2018-06-13T14:40:34.964Z,19.60
2018-06-13T14:43:04.387Z,19.40
2018-06-13T14:45:33.659Z,19.80
2018-06-13T14:48:02.945Z,19.50
2018-06-13T14:50:32.228Z,19.70
2018-06-13T14:53:01.464Z,19.60
2018-06-13T14:55:35.100Z,19.80
2018-06-13T14:58:04.424Z,19.70
2018-06-13T15:00:33.680Z,19.80
2018-06-13T15:03:03.052Z,19.70
2018-06-13T15:05:32.308Z,19.70
2018-06-13T15:08:01.592Z,19.60
2018-06-13T15:10:30.923Z,19.80
2018-06-13T15:13:00.256Z,20.00
2018-06-13T15:15:29.529Z,20.20
2018-06-13T15:17:58.798Z,20.30
2018-06-13T15:20:28.066Z,20.20
2018-06-13T15:22:58.167Z,19.90
2018-06-13T15:25:27.461Z,19.70
2018-06-13T15:27:56.764Z,19.70
2018-06-13T15:30:26.079Z,19.90
2018-06-13T15:32:55.380Z,19.80
2018-06-13T15:35:24.727Z,19.80
2018-06-13T15:37:54.024Z,20.10
2018-06-13T15:40:23.288Z,19.90
2018-06-13T15:42:52.541Z,20.00
2018-06-13T15:45:21.880Z,20.20
2018-06-13T15:47:51.128Z,19.70
2018-06-13T15:50:20.493Z,19.90
2018-06-13T15:52:50.452Z,19.60
2018-06-13T15:55:19.888Z,19.80
2018-06-13T15:57:49.133Z,19.70
2018-06-13T16:00:18.408Z,20.00
2018-06-13T16:02:47.757Z,19.80
2018-06-13T16:05:17.122Z,19.80
2018-06-13T16:07:46.463Z,19.40
2018-06-13T16:10:15.769Z,19.70
2018-06-13T16:12:45.077Z,20.00
2018-06-13T16:15:14.354Z,19.50
2018-06-13T16:17:43.925Z,19.70
2018-06-13T16:20:13.229Z,19.80
2018-06-13T16:22:42.694Z,19.50
2018-06-13T16:25:11.928Z,19.60
2018-06-13T16:27:41.144Z,19.70
2018-06-13T16:30:10.516Z,19.50
2018-06-13T16:32:39.780Z,19.40
2018-06-13T16:35:09.051Z,19.50
2018-06-13T16:37:38.341Z,19.60
2018-06-13T16:40:07.636Z,19.60
2018-06-13T16:42:36.888Z,19.60
2018-06-13T16:45:06.102Z,19.70
2018-06-13T16:47:35.359Z,19.40
2018-06-13T16:50:14.460Z,19.40
2018-06-13T16:52:54.867Z,19.30
2018-06-13T16:55:24.951Z,19.40
2018-06-13T16:57:54.200Z,19.60
2018-06-13T17:00:23.497Z,19.30
2018-06-13T17:02:52.874Z,19.30
2018-06-13T17:05:22.161Z,19.60
2018-06-13T17:07:51.453Z,19.40
2018-06-13T17:10:20.732Z,19.60
2018-06-13T17:12:49.998Z,19.50
2018-06-13T17:15:19.243Z,19.50
2018-06-13T17:17:48.467Z,19.50
2018-06-13T17:20:17.760Z,19.30
2018-06-13T17:22:47.131Z,19.40
2018-06-13T17:25:16.422Z,19.70
2018-06-13T17:27:45.743Z,19.40
2018-06-13T17:30:15.141Z,19.40
2018-06-13T17:32:44.448Z,19.50
2018-06-13T17:35:13.701Z,19.50
2018-06-13T17:37:43.009Z,19.30
2018-06-13T17:40:12.264Z,19.60
2018-06-13T17:42:41.569Z,19.40
2018-06-13T17:45:10.899Z,19.30
2018-06-13T17:47:40.155Z,19.40
2018-06-13T17:50:09.640Z,19.40
2018-06-13T17:52:38.878Z,19.30
2018-06-13T17:55:08.133Z,19.40
2018-06-13T17:57:37.496Z,19.40
2018-06-13T18:00:06.831Z,19.20
2018-06-13T18:02:36.255Z,19.20
2018-06-13T18:05:05.663Z,19.20
2018-06-13T18:07:34.972Z,19.40
2018-06-13T18:10:04.321Z,19.10
2018-06-13T18:12:33.604Z,19.20
2018-06-13T18:15:02.878Z,19.10
2018-06-13T18:17:32.307Z,19.30
2018-06-13T18:20:01.601Z,19.10
2018-06-13T18:22:30.898Z,19.50
2018-06-13T18:25:00.176Z,19.30
2018-06-13T18:27:29.481Z,19.50
2018-06-13T18:29:58.656Z,19.30
2018-06-13T18:32:27.836Z,19.80
2018-06-13T18:34:57.076Z,19.60
2018-06-13T18:37:26.964Z,19.70
2018-06-13T18:39:56.272Z,19.60
2018-06-13T18:42:25.535Z,19.70
2018-06-13T18:44:54.750Z,19.80
2018-06-13T18:47:24.029Z,20.00
2018-06-13T18:49:53.448Z,20.00
2018-06-13T18:52:22.695Z,20.10
2018-06-13T18:54:51.994Z,19.90
2018-06-13T18:57:21.259Z,19.90
2018-06-13T18:59:50.535Z,19.90
2018-06-13T19:02:19.761Z,19.80
2018-06-13T19:04:49.271Z,20.30
2018-06-13T19:07:18.558Z,20.20
2018-06-13T19:09:47.880Z,20.30
2018-06-13T19:12:17.171Z,20.20
2018-06-13T19:14:46.523Z,20.30
2018-06-13T19:17:15.839Z,20.30
2018-06-13T19:19:45.084Z,20.10
2018-06-13T19:22:14.343Z,20.40
2018-06-13T19:24:43.632Z,20.10
2018-06-13T19:27:12.964Z,20.10
2018-06-13T19:29:42.263Z,20.10
2018-06-13T19:32:11.539Z,19.90
2018-06-13T19:34:40.945Z,19.90
2018-06-13T19:37:10.263Z,19.90
2018-06-13T19:39:39.568Z,19.80
2018-06-13T19:42:08.838Z,19.80
2018-06-13T19:44:38.101Z,19.70
2018-06-13T19:47:12.535Z,19.80
2018-06-13T19:49:41.860Z,19.50
2018-06-13T19:52:11.325Z,19.60
2018-06-13T19:54:45.904Z,19.30
2018-06-13T19:57:15.133Z,19.60
2018-06-13T19:59:44.349Z,19.60
2018-06-13T20:02:13.540Z,19.30
2018-06-13T20:04:48.024Z,19.40
2018-06-13T20:07:17.303Z,19.00
2018-06-13T20:09:46.631Z,19.10
2018-06-13T20:12:32.319Z,19.00
2018-06-13T20:15:06.820Z,19.20
2018-06-13T20:17:41.511Z,18.90
2018-06-13T20:20:10.964Z,18.60
2018-06-13T20:22:40.240Z,18.50
2018-06-13T20:25:14.868Z,18.50
2018-06-13T20:27:49.246Z,18.80
2018-06-13T20:30:23.601Z,18.40
2018-06-13T20:32:53.489Z,18.60
2018-06-13T20:35:22.882Z,18.70
2018-06-13T20:37:52.307Z,18.50
2018-06-13T20:40:21.673Z,18.50
2018-06-13T20:42:51.055Z,18.60
2018-06-13T20:45:20.304Z,18.60
2018-06-13T20:47:49.600Z,18.60
2018-06-13T20:50:18.911Z,18.30
2018-06-13T20:52:48.455Z,18.40
2018-06-13T20:55:17.762Z,18.20
2018-06-13T20:57:47.123Z,18.10
2018-06-13T21:00:16.356Z,18.20
2018-06-13T21:02:45.735Z,18.20
2018-06-13T21:05:15.041Z,18.00
2018-06-13T21:07:44.498Z,17.70
2018-06-13T21:10:13.904Z,18.00
2018-06-13T21:12:43.165Z,17.90
2018-06-13T21:15:12.386Z,18.20
2018-06-13T21:17:41.809Z,17.80
2018-06-13T21:20:11.238Z,18.00
2018-06-13T21:22:40.481Z,17.80
2018-06-13T21:25:09.785Z,17.50
2018-06-13T21:27:39.105Z,17.50
2018-06-13T21:30:08.527Z,17.30
2018-06-13T21:32:37.931Z,17.40
2018-06-13T21:35:07.446Z,17.60
2018-06-13T21:37:36.678Z,17.30
2018-06-13T21:40:06.219Z,17.40
2018-06-13T21:42:35.439Z,17.30
2018-06-13T21:45:05.030Z,17.30
2018-06-13T21:47:35.419Z,17.30
2018-06-13T21:50:04.795Z,16.90
2018-06-13T21:52:34.659Z,17.10
2018-06-13T21:55:04.013Z,17.30
2018-06-13T21:57:33.241Z,16.90
2018-06-13T22:00:02.487Z,17.00
2018-06-13T22:02:31.812Z,16.80
2018-06-13T22:05:01.068Z,16.90
2018-06-13T22:07:30.377Z,17.00
2018-06-13T22:09:59.774Z,16.80
2018-06-13T22:12:29.037Z,16.70
2018-06-13T22:14:58.217Z,16.90
2018-06-13T22:17:27.531Z,16.90
2018-06-13T22:19:56.804Z,16.70
2018-06-13T22:22:26.137Z,16.60
2018-06-13T22:24:55.377Z,16.70
2018-06-13T22:27:24.601Z,16.50
2018-06-13T22:29:53.786Z,16.60
2018-06-13T22:32:23.018Z,16.60
2018-06-13T22:34:52.231Z,16.50
2018-06-13T22:37:21.559Z,16.80
2018-06-13T22:39:50.756Z,16.70
2018-06-13T22:42:20.062Z,16.40
2018-06-13T22:44:49.288Z,16.50
2018-06-13T22:47:18.507Z,16.50
2018-06-13T22:49:47.836Z,16.30
2018-06-13T22:52:17.007Z,16.40
2018-06-13T22:54:46.209Z,16.70
2018-06-13T22:57:15.418Z,16.30
2018-06-13T22:59:44.634Z,16.50
2018-06-13T23:02:13.860Z,16.50
2018-06-13T23:04:43.125Z,16.50
2018-06-13T23:07:12.305Z,16.10
2018-06-13T23:09:41.500Z,16.40
2018-06-13T23:12:10.715Z,15.90
2018-06-13T23:14:39.949Z,16.10
2018-06-13T23:17:09.696Z,16.00
2018-06-13T23:19:39.022Z,15.90
2018-06-13T23:22:08.178Z,16.20
2018-06-13T23:24:37.386Z,16.00
2018-06-13T23:27:06.600Z,15.90
2018-06-13T23:29:35.816Z,15.90
2018-06-13T23:32:05.029Z,16.00
2018-06-13T23:34:34.248Z,15.90
2018-06-13T23:37:03.517Z,15.80
2018-06-13T23:39:32.770Z,16.00
2018-06-13T23:42:02.095Z,15.90
2018-06-13T23:44:31.330Z,15.80
2018-06-13T23:47:00.573Z,15.80
2018-06-13T23:49:29.791Z,15.90
2018-06-13T23:51:59.047Z,15.80
2018-06-13T23:54:28.372Z,15.90
2018-06-13T23:56:57.572Z,15.80
2018-06-13T23:59:26.789Z,15.80
